Time;durP1;ratioP1;P1;durP2;ratioP2;P2;SDS_P1;SDS_P2;PMS_P1;PMS_P2;Temp;Humidity;BMP_temperature;BMP_pressure;BME280_temperature;BME280_humidity;BME280_pressure;Samples;Min_cycle;Max_cycle;Signal;HPM_P1;HPM_P2
2023/04/16 00:00:42;;;;;;;;;;;8.50;99.90;;;;;;4991141;28;20061;-61
2023/04/16 00:03:07;;;;;;;;;;;8.50;99.90;;;;;;4988901;28;19920;-60
2023/04/16 00:05:33;;;;;;;;;;;8.50;99.90;;;;;;4990247;28;19917;-59
2023/04/16 00:07:58;;;;;;;;;;;8.50;99.90;;;;;;4991008;28;19918;-60
2023/04/16 00:10:24;;;;;;;;;;;8.50;99.90;;;;;;4990569;28;19961;-61
2023/04/16 00:12:49;;;;;;;;;;;8.50;99.90;;;;;;4989168;28;19964;-61
2023/04/16 00:15:15;;;;;;;;;;;8.50;99.90;;;;;;4987808;28;20709;-62
2023/04/16 00:17:40;;;;;;;;;;;8.50;99.90;;;;;;4987885;28;20012;-61
2023/04/16 00:20:07;;;;;;;;;;;8.50;99.90;;;;;;4990614;28;19944;-61
2023/04/16 00:22:33;;;;;;;;;;;8.50;99.90;;;;;;4991769;28;19920;-60
2023/04/16 00:24:58;;;;;;;;;;;8.50;99.90;;;;;;4993816;28;19913;-60
2023/04/16 00:27:24;;;;;;;;;;;8.50;99.90;;;;;;4991110;28;20347;-60
2023/04/16 00:29:49;;;;;;;;;;;8.50;99.90;;;;;;4990082;28;19917;-62
2023/04/16 00:32:15;;;;;;;;;;;8.50;99.90;;;;;;4986051;28;20376;-61
2023/04/16 00:34:40;;;;;;;;;;;8.50;99.90;;;;;;4987311;28;20366;-61
2023/04/16 00:37:06;;;;;;;;;;;8.50;99.90;;;;;;4988609;28;20281;-60
2023/04/16 00:39:31;;;;;;;;;;;8.50;99.90;;;;;;4990228;28;19959;-60
2023/04/16 00:41:57;;;;;;;;;;;8.50;99.90;;;;;;4985393;28;19949;-60
2023/04/16 00:44:22;;;;;;;;;;;8.50;99.90;;;;;;4989129;28;19918;-61
2023/04/16 00:46:48;;;;;;;;;;;8.50;99.90;;;;;;4988669;28;19925;-61
2023/04/16 00:49:13;;;;;;;;;;;8.60;99.90;;;;;;4989981;28;20434;-61
2023/04/16 00:51:39;;;;;;;;;;;8.50;99.90;;;;;;4989290;28;19913;-61
2023/04/16 00:54:05;;;;;;;;;;;8.50;99.90;;;;;;4992293;28;19924;-61
2023/04/16 00:56:30;;;;;;;;;;;8.50;99.90;;;;;;4987483;28;19941;-62
2023/04/16 00:58:56;;;;;;;;;;;8.50;99.90;;;;;;4992782;28;19914;-60
2023/04/16 01:01:21;;;;;;;;;;;8.50;99.90;;;;;;4991287;28;19949;-61
2023/04/16 01:03:47;;;;;;;;;;;8.50;99.90;;;;;;4988742;28;19914;-59
2023/04/16 01:06:13;;;;;;;;;;;8.50;99.90;;;;;;4981582;28;19925;-60
2023/04/16 01:08:39;;;;;;;;;;;8.50;99.90;;;;;;4990188;28;19910;-60
2023/04/16 01:11:04;;;;;;;;;;;8.50;99.90;;;;;;4983977;28;20649;-61
2023/04/16 01:13:30;;;;;;;;;;;8.50;99.90;;;;;;4984854;28;19928;-60
2023/04/16 01:15:55;;;;;;;;;;;8.50;99.90;;;;;;4990962;28;19910;-61
2023/04/16 01:18:21;;;;;;;;;;;8.50;99.90;;;;;;4989179;28;19917;-61
2023/04/16 01:20:47;;;;;;;;;;;8.50;99.90;;;;;;4983988;28;20482;-61
2023/04/16 01:23:13;;;;;;;;;;;8.50;99.90;;;;;;4992017;28;19928;-61
2023/04/16 01:25:38;;;;;;;;;;;8.50;99.90;;;;;;4992661;28;20495;-60
2023/04/16 01:28:04;;;;;;;;;;;8.50;99.90;;;;;;4989778;28;19960;-60
2023/04/16 01:30:30;;;;;;;;;;;8.50;99.90;;;;;;4992857;28;19948;-61
2023/04/16 01:32:56;;;;;;;;;;;8.50;99.90;;;;;;4992776;28;20399;-60
2023/04/16 01:35:22;;;;;;;;;;;8.50;99.90;;;;;;4992470;28;19980;-59
2023/04/16 01:37:48;;;;;;;;;;;8.50;99.90;;;;;;4992588;28;20387;-60
2023/04/16 01:40:14;;;;;;;;;;;8.50;99.90;;;;;;4990720;28;19913;-59
2023/04/16 01:42:39;;;;;;;;;;;8.50;99.90;;;;;;4993538;28;19948;-61
2023/04/16 01:45:05;;;;;;;;;;;8.50;99.90;;;;;;4992546;28;19918;-60
2023/04/16 01:47:31;;;;;;;;;;;8.50;99.90;;;;;;4993622;28;19975;-60
2023/04/16 01:49:58;;;;;;;;;;;8.50;99.90;;;;;;4992002;28;20382;-60
2023/04/16 01:52:23;;;;;;;;;;;8.50;99.90;;;;;;4994114;28;19910;-59
2023/04/16 01:54:49;;;;;;;;;;;8.50;99.90;;;;;;4992359;28;20430;-61
2023/04/16 01:57:14;;;;;;;;;;;8.50;99.90;;;;;;4992244;28;20316;-59
2023/04/16 01:59:39;;;;;;;;;;;8.50;99.90;;;;;;4993313;28;19945;-59
2023/04/16 02:02:15;;;;;;;;;;;8.40;99.90;;;;;;4992408;28;19929;-59
2023/04/16 02:04:41;;;;;;;;;;;8.50;99.90;;;;;;4989875;28;19920;-62
2023/04/16 02:07:07;;;;;;;;;;;8.40;99.90;;;;;;4988391;28;19917;-58
2023/04/16 02:09:33;;;;;;;;;;;8.40;99.90;;;;;;4990139;28;20352;-61
2023/04/16 02:12:01;;;;;;;;;;;8.40;99.90;;;;;;4993616;28;19936;-61
2023/04/16 02:14:26;;;;;;;;;;;8.40;99.90;;;;;;4991615;28;19914;-60
2023/04/16 02:16:52;;;;;;;;;;;8.40;99.90;;;;;;4993329;28;19910;-60
2023/04/16 02:19:17;;;;;;;;;;;8.40;99.90;;;;;;4991946;28;19996;-60
2023/04/16 02:21:43;;;;;;;;;;;8.50;99.90;;;;;;4992784;28;19929;-61
2023/04/16 02:24:08;;;;;;;;;;;8.50;99.90;;;;;;4991368;28;19914;-60
2023/04/16 02:26:34;;;;;;;;;;;8.40;99.90;;;;;;4994093;28;19914;-60
2023/04/16 02:29:00;;;;;;;;;;;8.40;99.90;;;;;;4997525;28;19940;-61
2023/04/16 02:31:27;;;;;;;;;;;8.40;99.90;;;;;;4991815;28;19918;-61
2023/04/16 02:33:53;;;;;;;;;;;8.50;99.90;;;;;;4990020;28;19973;-61
2023/04/16 02:36:18;;;;;;;;;;;8.50;99.90;;;;;;4988726;28;19957;-60
2023/04/16 02:38:44;;;;;;;;;;;8.50;99.90;;;;;;4992683;28;20291;-60
2023/04/16 02:41:09;;;;;;;;;;;8.50;99.90;;;;;;4991980;28;19941;-61
2023/04/16 02:43:35;;;;;;;;;;;8.50;99.90;;;;;;4988413;28;19924;-59
2023/04/16 02:46:00;;;;;;;;;;;8.50;99.90;;;;;;4987667;28;20364;-61
2023/04/16 02:48:25;;;;;;;;;;;8.50;99.90;;;;;;4992361;28;19972;-61
2023/04/16 02:50:51;;;;;;;;;;;8.50;99.90;;;;;;4992432;28;19925;-61
2023/04/16 02:53:16;;;;;;;;;;;8.50;99.90;;;;;;4990615;28;19921;-62
2023/04/16 02:55:48;;;;;;;;;;;8.50;99.90;;;;;;4992310;28;19925;-61
2023/04/16 02:58:13;;;;;;;;;;;8.50;99.90;;;;;;4990341;28;20016;-61
2023/04/16 03:00:39;;;;;;;;;;;8.50;99.90;;;;;;4991860;28;20056;-61
2023/04/16 03:03:04;;;;;;;;;;;8.60;99.90;;;;;;4991243;28;20330;-60
2023/04/16 03:05:30;;;;;;;;;;;8.50;99.90;;;;;;4988203;28;19918;-61
2023/04/16 03:07:56;;;;;;;;;;;8.50;99.90;;;;;;4992194;28;19993;-62
2023/04/16 03:10:22;;;;;;;;;;;8.50;99.90;;;;;;4983889;28;19923;-60
2023/04/16 03:12:47;;;;;;;;;;;8.50;99.90;;;;;;4988790;28;19914;-61
2023/04/16 03:15:13;;;;;;;;;;;8.50;99.90;;;;;;4987811;28;19930;-61
2023/04/16 03:17:38;;;;;;;;;;;8.50;99.90;;;;;;4991046;28;20011;-61
2023/04/16 03:20:04;;;;;;;;;;;8.50;99.90;;;;;;4986650;28;20443;-60
2023/04/16 03:22:29;;;;;;;;;;;8.40;99.90;;;;;;4991597;28;19914;-61
2023/04/16 03:24:55;;;;;;;;;;;8.50;99.90;;;;;;4985193;28;19910;-57
2023/04/16 03:27:20;;;;;;;;;;;8.50;99.90;;;;;;4990365;28;19921;-62
2023/04/16 03:29:46;;;;;;;;;;;8.50;99.90;;;;;;4992442;28;19913;-60
2023/04/16 03:32:11;;;;;;;;;;;8.50;99.90;;;;;;4989466;28;19928;-61
2023/04/16 03:34:37;;;;;;;;;;;8.50;99.90;;;;;;4991200;28;19925;-60
2023/04/16 03:37:04;;;;;;;;;;;8.60;99.90;;;;;;4990707;28;19928;-61
2023/04/16 03:39:29;;;;;;;;;;;8.50;99.90;;;;;;4989155;28;19917;-59
2023/04/16 03:41:55;;;;;;;;;;;8.50;99.90;;;;;;4991362;28;19922;-61
2023/04/16 03:44:20;;;;;;;;;;;8.50;99.90;;;;;;4990901;28;19921;-61
2023/04/16 03:46:46;;;;;;;;;;;8.50;99.90;;;;;;4990833;28;20015;-59
2023/04/16 03:49:11;;;;;;;;;;;8.50;99.90;;;;;;4991496;28;20388;-61
2023/04/16 03:51:37;;;;;;;;;;;8.50;99.90;;;;;;4990154;28;19917;-63
2023/04/16 03:54:02;;;;;;;;;;;8.50;99.90;;;;;;4990555;28;19999;-61
2023/04/16 03:56:28;;;;;;;;;;;8.50;99.90;;;;;;4990591;28;19921;-61
2023/04/16 03:58:53;;;;;;;;;;;8.50;99.90;;;;;;4996683;28;19920;-61
2023/04/16 04:01:18;;;;;;;;;;;8.50;99.90;;;;;;4988490;28;19921;-61
2023/04/16 04:03:44;;;;;;;;;;;8.50;99.90;;;;;;4992627;28;19920;-60
2023/04/16 04:06:09;;;;;;;;;;;8.50;99.90;;;;;;4991826;28;19918;-60
2023/04/16 04:08:35;;;;;;;;;;;8.50;99.90;;;;;;4991064;28;19922;-61
2023/04/16 04:11:00;;;;;;;;;;;8.50;99.90;;;;;;4990360;28;20028;-59
2023/04/16 04:13:26;;;;;;;;;;;8.50;99.90;;;;;;4993697;28;19921;-61
2023/04/16 04:15:51;;;;;;;;;;;8.50;99.90;;;;;;4991272;28;19924;-61
2023/04/16 04:18:17;;;;;;;;;;;8.50;99.90;;;;;;4992567;28;20755;-61
2023/04/16 04:20:43;;;;;;;;;;;8.50;99.90;;;;;;4986141;28;19920;-61
2023/04/16 04:23:08;;;;;;;;;;;8.50;99.90;;;;;;4993147;28;19922;-61
2023/04/16 04:25:34;;;;;;;;;;;8.50;99.90;;;;;;4992393;28;19921;-62
2023/04/16 04:27:59;;;;;;;;;;;8.60;99.90;;;;;;4988120;28;19917;-61
2023/04/16 04:30:25;;;;;;;;;;;8.60;99.90;;;;;;4988583;28;19914;-61
2023/04/16 04:32:50;;;;;;;;;;;8.50;99.90;;;;;;4990805;28;19914;-62
2023/04/16 04:35:16;;;;;;;;;;;8.50;99.90;;;;;;4989080;28;19914;-61
2023/04/16 04:37:41;;;;;;;;;;;8.50;99.90;;;;;;4992601;28;20016;-61
2023/04/16 04:40:07;;;;;;;;;;;8.50;99.90;;;;;;4980998;28;20390;-61
2023/04/16 04:42:32;;;;;;;;;;;8.60;99.90;;;;;;4990576;28;19914;-60
2023/04/16 04:44:58;;;;;;;;;;;8.60;99.90;;;;;;4990584;28;19987;-60
2023/04/16 04:47:23;;;;;;;;;;;8.60;99.90;;;;;;4990030;28;19976;-62
2023/04/16 04:49:49;;;;;;;;;;;8.60;99.90;;;;;;4989801;28;19922;-61
2023/04/16 04:52:14;;;;;;;;;;;8.60;99.90;;;;;;4988309;28;20280;-62
2023/04/16 04:54:40;;;;;;;;;;;8.60;99.90;;;;;;4991454;28;19910;-62
2023/04/16 04:57:06;;;;;;;;;;;8.60;99.90;;;;;;4987622;28;19973;-62
2023/04/16 04:59:32;;;;;;;;;;;8.60;99.90;;;;;;4987453;28;20289;-60
2023/04/16 05:01:57;;;;;;;;;;;8.60;99.90;;;;;;4990996;28;20022;-61
2023/04/16 05:04:22;;;;;;;;;;;8.60;99.90;;;;;;4991376;28;19944;-62
2023/04/16 05:06:48;;;;;;;;;;;8.60;99.90;;;;;;4986804;28;20431;-60
2023/04/16 05:09:13;;;;;;;;;;;8.60;99.90;;;;;;4983395;28;20367;-61
2023/04/16 05:11:40;;;;;;;;;;;8.60;99.90;;;;;;4994341;28;19956;-61
2023/04/16 05:14:05;;;;;;;;;;;8.70;99.90;;;;;;4989405;28;19918;-60
2023/04/16 05:16:31;;;;;;;;;;;8.70;99.90;;;;;;4997321;28;19980;-61
2023/04/16 05:18:57;;;;;;;;;;;8.60;99.90;;;;;;4997481;28;19953;-60
2023/04/16 05:21:22;;;;;;;;;;;8.70;99.90;;;;;;4989925;28;19914;-58
2023/04/16 05:23:48;;;;;;;;;;;8.70;99.90;;;;;;4992962;28;19914;-60
2023/04/16 05:26:13;;;;;;;;;;;8.70;99.90;;;;;;4993611;28;20450;-58
2023/04/16 05:28:39;;;;;;;;;;;8.70;99.90;;;;;;4991033;28;19921;-59
2023/04/16 05:31:04;;;;;;;;;;;8.70;99.90;;;;;;4993599;28;19914;-58
2023/04/16 05:33:30;;;;;;;;;;;8.70;99.90;;;;;;4995367;28;19913;-59
2023/04/16 05:35:55;;;;;;;;;;;8.70;99.90;;;;;;4995361;28;19918;-59
2023/04/16 05:38:21;;;;;;;;;;;8.70;99.90;;;;;;4995239;28;19918;-60
2023/04/16 05:40:46;;;;;;;;;;;8.70;99.90;;;;;;4995250;28;19914;-60
2023/04/16 05:43:11;;;;;;;;;;;8.70;99.90;;;;;;4994097;28;20419;-59
2023/04/16 05:45:39;;;;;;;;;;;8.70;99.90;;;;;;4992763;28;20226;-61
2023/04/16 05:48:08;;;;;;;;;;;8.80;99.90;;;;;;4996074;28;20410;-60
2023/04/16 05:50:34;;;;;;;;;;;8.80;99.90;;;;;;4992685;28;19918;-59
2023/04/16 05:53:01;;;;;;;;;;;8.80;99.90;;;;;;4995637;28;19920;-60
2023/04/16 05:55:26;;;;;;;;;;;8.80;99.90;;;;;;4988668;28;20008;-60
2023/04/16 05:57:52;;;;;;;;;;;8.80;99.90;;;;;;4992997;28;20045;-60
2023/04/16 06:00:17;;;;;;;;;;;8.80;99.90;;;;;;4989139;28;19957;-59
2023/04/16 06:02:43;;;;;;;;;;;8.90;99.90;;;;;;4991686;28;19922;-59
2023/04/16 06:05:08;;;;;;;;;;;8.80;99.90;;;;;;4995501;28;20277;-58
2023/04/16 06:07:34;;;;;;;;;;;8.90;99.90;;;;;;4995047;28;19918;-58
2023/04/16 06:09:59;;;;;;;;;;;8.90;99.90;;;;;;4990955;28;19910;-60
2023/04/16 06:12:24;;;;;;;;;;;8.90;99.90;;;;;;4992904;28;20406;-59
2023/04/16 06:14:50;;;;;;;;;;;8.90;99.90;;;;;;4993256;28;19957;-58
2023/04/16 06:17:15;;;;;;;;;;;8.90;99.90;;;;;;4986285;28;20538;-60
2023/04/16 06:19:41;;;;;;;;;;;8.90;99.90;;;;;;4983737;28;19981;-59
2023/04/16 06:22:06;;;;;;;;;;;9.00;99.90;;;;;;4997186;28;19918;-58
2023/04/16 06:24:32;;;;;;;;;;;9.00;99.90;;;;;;4987614;28;19910;-60
2023/04/16 06:26:57;;;;;;;;;;;8.90;99.90;;;;;;4987894;28;20284;-60
2023/04/16 06:29:23;;;;;;;;;;;9.00;99.90;;;;;;4991304;28;20016;-59
2023/04/16 06:31:48;;;;;;;;;;;9.00;99.90;;;;;;4987180;28;19913;-61
2023/04/16 06:34:14;;;;;;;;;;;8.90;99.90;;;;;;4984957;28;19922;-60
2023/04/16 06:36:39;;;;;;;;;;;9.00;99.90;;;;;;4993705;28;19914;-61
2023/04/16 06:39:05;;;;;;;;;;;9.00;99.90;;;;;;4991626;28;21988;-61
2023/04/16 06:41:30;;;;;;;;;;;9.00;99.90;;;;;;4994590;28;20387;-60
2023/04/16 06:43:55;;;;;;;;;;;9.00;99.90;;;;;;4991781;28;19960;-60
2023/04/16 06:46:21;;;;;;;;;;;9.00;99.90;;;;;;4990419;28;19920;-59
2023/04/16 06:48:46;;;;;;;;;;;9.00;99.90;;;;;;4988449;28;20387;-59
2023/04/16 06:51:12;;;;;;;;;;;9.00;99.90;;;;;;4996985;28;19984;-60
2023/04/16 06:53:37;;;;;;;;;;;9.10;99.90;;;;;;4991370;28;19910;-59
2023/04/16 06:56:03;;;;;;;;;;;9.10;99.90;;;;;;4990185;28;20861;-62
2023/04/16 06:58:28;;;;;;;;;;;9.10;99.90;;;;;;4995873;28;19913;-60
2023/04/16 07:00:54;;;;;;;;;;;9.10;99.90;;;;;;4991030;28;19910;-61
2023/04/16 07:03:19;;;;;;;;;;;9.10;99.90;;;;;;4991782;28;19920;-61
2023/04/16 07:05:45;;;;;;;;;;;9.10;99.90;;;;;;4988592;28;21510;-61
2023/04/16 07:08:11;;;;;;;;;;;9.10;99.90;;;;;;4986110;28;19940;-61
2023/04/16 07:10:36;;;;;;;;;;;9.10;99.90;;;;;;4992645;28;19909;-61
2023/04/16 07:13:02;;;;;;;;;;;9.10;99.90;;;;;;4989860;28;19993;-63
2023/04/16 07:15:27;;;;;;;;;;;9.10;99.90;;;;;;4987184;28;20008;-60
2023/04/16 07:17:53;;;;;;;;;;;9.10;99.90;;;;;;4988843;28;19914;-61
2023/04/16 07:20:18;;;;;;;;;;;9.10;99.90;;;;;;4989719;28;19918;-60
2023/04/16 07:22:44;;;;;;;;;;;9.20;99.90;;;;;;4988594;28;19920;-60
2023/04/16 07:25:09;;;;;;;;;;;9.20;99.90;;;;;;4986819;28;19921;-60
2023/04/16 07:27:35;;;;;;;;;;;9.20;99.90;;;;;;4988882;28;20008;-60
2023/04/16 07:30:00;;;;;;;;;;;9.20;99.90;;;;;;4990370;28;20330;-61
2023/04/16 07:32:26;;;;;;;;;;;9.20;99.90;;;;;;4980776;28;19921;-62
2023/04/16 07:34:51;;;;;;;;;;;9.20;99.90;;;;;;5001403;28;20418;-61
2023/04/16 07:37:17;;;;;;;;;;;9.20;99.90;;;;;;4987967;28;19920;-62
2023/04/16 07:39:42;;;;;;;;;;;9.20;99.90;;;;;;4996019;28;20347;-61
2023/04/16 07:42:07;;;;;;;;;;;9.20;99.90;;;;;;4994543;28;21236;-59
2023/04/16 07:44:33;;;;;;;;;;;9.30;99.90;;;;;;4996737;28;20299;-60
2023/04/16 07:46:58;;;;;;;;;;;9.20;99.90;;;;;;4996217;28;20016;-60
2023/04/16 07:49:24;;;;;;;;;;;9.30;99.90;;;;;;4988716;28;19945;-60
2023/04/16 07:51:49;;;;;;;;;;;9.30;99.90;;;;;;4996368;28;19941;-60
2023/04/16 07:54:15;;;;;;;;;;;9.30;99.90;;;;;;4995057;28;19922;-61
2023/04/16 07:56:40;;;;;;;;;;;9.40;99.90;;;;;;4997554;28;20384;-59
2023/04/16 07:59:06;;;;;;;;;;;9.40;99.90;;;;;;4991590;28;20347;-61
2023/04/16 08:01:31;;;;;;;;;;;9.40;99.90;;;;;;4995174;28;19929;-62
2023/04/16 08:03:57;;;;;;;;;;;9.40;99.90;;;;;;4989098;28;19957;-60
2023/04/16 08:06:23;;;;;;;;;;;9.50;99.90;;;;;;4986100;28;20008;-58
2023/04/16 08:08:49;;;;;;;;;;;9.50;99.90;;;;;;4990727;28;19925;-60
2023/04/16 08:11:15;;;;;;;;;;;9.50;99.90;;;;;;4995667;28;20066;-58
2023/04/16 08:13:40;;;;;;;;;;;9.50;99.90;;;;;;4998792;28;20003;-58
2023/04/16 08:16:06;;;;;;;;;;;9.50;99.90;;;;;;4995613;28;19918;-61
2023/04/16 08:18:31;;;;;;;;;;;9.50;99.90;;;;;;4989808;28;20679;-60
2023/04/16 08:20:57;;;;;;;;;;;9.50;99.90;;;;;;4993927;28;19968;-59
2023/04/16 08:23:22;;;;;;;;;;;9.70;99.90;;;;;;4994494;28;20562;-62
2023/04/16 08:25:48;;;;;;;;;;;9.70;99.90;;;;;;4990119;28;19968;-61
2023/04/16 08:28:13;;;;;;;;;;;9.80;99.90;;;;;;4987626;28;20415;-62
2023/04/16 08:30:38;;;;;;;;;;;9.80;99.90;;;;;;4987883;28;19914;-61
2023/04/16 08:33:04;;;;;;;;;;;9.80;99.90;;;;;;4987494;28;19926;-61
2023/04/16 08:35:30;;;;;;;;;;;9.70;99.90;;;;;;4982979;28;19926;-59
2023/04/16 08:37:56;;;;;;;;;;;9.70;99.90;;;;;;4988456;28;19921;-61
2023/04/16 08:40:23;;;;;;;;;;;9.80;99.90;;;;;;4985977;28;19921;-60
2023/04/16 08:42:52;;;;;;;;;;;9.90;99.90;;;;;;4987584;28;19960;-60
2023/04/16 08:45:18;;;;;;;;;;;10.00;99.90;;;;;;4990077;28;19914;-61
2023/04/16 08:47:45;;;;;;;;;;;10.00;99.90;;;;;;4994109;28;19917;-61
2023/04/16 08:50:10;;;;;;;;;;;10.20;99.90;;;;;;4991419;28;19914;-61
2023/04/16 08:52:41;;;;;;;;;;;10.10;99.90;;;;;;4993521;28;20001;-62
2023/04/16 08:55:15;;;;;;;;;;;10.10;99.90;;;;;;4994575;28;20287;-62
2023/04/16 08:57:46;;;;;;;;;;;10.10;99.90;;;;;;4993575;28;20004;-62
2023/04/16 09:00:12;;;;;;;;;;;10.10;99.90;;;;;;4989609;28;20288;-59
2023/04/16 09:02:37;;;;;;;;;;;10.10;99.90;;;;;;4993979;28;19921;-60
2023/04/16 09:05:05;;;;;;;;;;;10.10;99.90;;;;;;4993136;28;20415;-62
2023/04/16 09:07:31;;;;;;;;;;;10.10;99.90;;;;;;4992646;28;19993;-62
2023/04/16 09:09:58;;;;;;;;;;;10.20;99.90;;;;;;4992207;28;19924;-59
2023/04/16 09:12:24;;;;;;;;;;;10.10;99.90;;;;;;4991770;28;19918;-62
2023/04/16 09:14:50;;;;;;;;;;;10.20;99.90;;;;;;4992487;28;20425;-62
2023/04/16 09:17:15;;;;;;;;;;;10.40;99.90;;;;;;4993207;28;19910;-62
2023/04/16 09:19:41;;;;;;;;;;;10.40;99.90;;;;;;4994492;28;19917;-62
2023/04/16 09:22:06;;;;;;;;;;;10.60;99.90;;;;;;4990316;28;19917;-61
2023/04/16 09:24:32;;;;;;;;;;;10.70;99.90;;;;;;4985858;28;20008;-63
2023/04/16 09:26:58;;;;;;;;;;;10.70;99.90;;;;;;4992464;28;19918;-62
2023/04/16 09:29:35;;;;;;;;;;;10.70;99.90;;;;;;4991240;28;20360;-62
2023/04/16 09:32:07;;;;;;;;;;;10.70;99.90;;;;;;4989041;28;19918;-62
2023/04/16 09:34:33;;;;;;;;;;;10.70;99.90;;;;;;4985810;28;20600;-62
2023/04/16 09:37:15;;;;;;;;;;;10.70;99.90;;;;;;4994018;28;19953;-60
2023/04/16 09:39:51;;;;;;;;;;;10.70;99.90;;;;;;4990519;28;19924;-61
2023/04/16 09:42:20;;;;;;;;;;;10.80;99.90;;;;;;4991605;28;19968;-62
2023/04/16 09:44:48;;;;;;;;;;;10.90;99.90;;;;;;4991883;28;19913;-62
2023/04/16 09:47:13;;;;;;;;;;;10.90;99.90;;;;;;4986422;28;19921;-61
2023/04/16 09:49:42;;;;;;;;;;;10.90;99.90;;;;;;4994235;28;19913;-61
2023/04/16 09:52:14;;;;;;;;;;;10.90;99.90;;;;;;4988069;28;19914;-62
2023/04/16 09:54:45;;;;;;;;;;;10.90;99.90;;;;;;4989896;28;19914;-62
2023/04/16 09:57:10;;;;;;;;;;;11.00;99.90;;;;;;4990914;28;19964;-62
2023/04/16 09:59:36;;;;;;;;;;;11.10;99.90;;;;;;4991899;28;19957;-63
2023/04/16 10:02:02;;;;;;;;;;;11.10;99.90;;;;;;4990017;28;20334;-63
2023/04/16 10:04:27;;;;;;;;;;;11.00;99.90;;;;;;4991246;28;19945;-62
2023/04/16 10:07:03;;;;;;;;;;;11.00;99.90;;;;;;4991087;28;20012;-62
2023/04/16 10:09:36;;;;;;;;;;;11.00;99.90;;;;;;4987268;28;20478;-62
2023/04/16 10:12:01;;;;;;;;;;;10.90;99.90;;;;;;4988400;28;19920;-63
2023/04/16 10:14:27;;;;;;;;;;;10.90;99.90;;;;;;4990629;28;19918;-63
2023/04/16 10:16:52;;;;;;;;;;;11.00;99.90;;;;;;5003153;28;19920;-64
2023/04/16 10:19:18;;;;;;;;;;;11.10;99.90;;;;;;4991824;28;19914;-63
2023/04/16 10:21:44;;;;;;;;;;;11.10;99.90;;;;;;4991872;28;19941;-64
2023/04/16 10:24:10;;;;;;;;;;;11.20;99.90;;;;;;4991532;28;19914;-64
2023/04/16 10:26:35;;;;;;;;;;;11.20;99.90;;;;;;4989790;28;20405;-64
2023/04/16 10:29:01;;;;;;;;;;;11.20;99.90;;;;;;4993257;28;20005;-64
2023/04/16 10:31:27;;;;;;;;;;;11.30;99.90;;;;;;4987807;28;19922;-63
2023/04/16 10:33:53;;;;;;;;;;;11.30;99.90;;;;;;4987631;28;20419;-63
2023/04/16 10:36:22;;;;;;;;;;;11.40;99.90;;;;;;4984268;28;20352;-63
2023/04/16 10:38:49;;;;;;;;;;;11.50;99.90;;;;;;4990670;28;19920;-63
2023/04/16 10:41:14;;;;;;;;;;;11.50;99.90;;;;;;4990487;28;20462;-64
2023/04/16 10:43:41;;;;;;;;;;;11.40;99.90;;;;;;4981112;28;19949;-62
2023/04/16 10:46:22;;;;;;;;;;;11.40;99.90;;;;;;4985610;28;19925;-64
2023/04/16 10:48:48;;;;;;;;;;;11.40;99.90;;;;;;4983357;28;19928;-63
2023/04/16 10:51:22;;;;;;;;;;;11.40;99.90;;;;;;4985117;28;19913;-64
2023/04/16 10:53:47;;;;;;;;;;;11.40;99.90;;;;;;4989214;28;20560;-63
2023/04/16 10:56:14;;;;;;;;;;;11.40;99.90;;;;;;4986927;28;19945;-63
2023/04/16 10:58:40;;;;;;;;;;;11.50;99.90;;;;;;4979974;28;19920;-64
2023/04/16 11:01:06;;;;;;;;;;;11.50;99.90;;;;;;4988054;28;19921;-63
2023/04/16 11:03:32;;;;;;;;;;;11.50;99.90;;;;;;4983359;28;19914;-61
2023/04/16 11:06:23;;;;;;;;;;;11.60;99.90;;;;;;4985336;28;20682;-63
2023/04/16 11:08:52;;;;;;;;;;;11.80;99.90;;;;;;4988741;28;19922;-62
2023/04/16 11:11:17;;;;;;;;;;;11.80;99.90;;;;;;4992591;28;19936;-61
2023/04/16 11:13:44;;;;;;;;;;;11.80;99.90;;;;;;4984057;28;20277;-62
2023/04/16 11:16:13;;;;;;;;;;;11.90;99.90;;;;;;4986156;28;19980;-62
2023/04/16 11:18:40;;;;;;;;;;;12.10;99.90;;;;;;4988492;28;19961;-63
2023/04/16 11:21:09;;;;;;;;;;;12.20;99.90;;;;;;4985693;28;20447;-63
2023/04/16 11:23:48;;;;;;;;;;;12.40;99.90;;;;;;4980497;28;19960;-64
2023/04/16 11:26:27;;;;;;;;;;;12.40;99.90;;;;;;4984470;28;19914;-64
2023/04/16 11:28:53;;;;;;;;;;;12.40;99.90;;;;;;4985720;28;19926;-64
2023/04/16 11:31:19;;;;;;;;;;;12.30;99.90;;;;;;4985820;28;19913;-63
2023/04/16 11:33:44;;;;;;;;;;;12.20;99.90;;;;;;4987087;28;20438;-64
2023/04/16 11:36:10;;;;;;;;;;;12.20;99.90;;;;;;4981571;28;20572;-63
2023/04/16 11:38:36;;;;;;;;;;;12.20;99.90;;;;;;4982034;28;19932;-63
2023/04/16 11:41:02;;;;;;;;;;;12.30;99.90;;;;;;4986078;28;19941;-65
2023/04/16 11:43:27;;;;;;;;;;;12.40;99.90;;;;;;4985139;28;20363;-63
2023/04/16 11:46:00;;;;;;;;;;;12.40;99.90;;;;;;4985819;28;19929;-63
2023/04/16 11:48:46;;;;;;;;;;;12.40;99.90;;;;;;4983862;28;20313;-63
2023/04/16 11:51:12;;;;;;;;;;;12.30;99.90;;;;;;4985880;28;20407;-64
2023/04/16 11:53:44;;;;;;;;;;;12.30;99.90;;;;;;4988394;28;19914;-61
2023/04/16 11:56:09;;;;;;;;;;;12.30;99.90;;;;;;4987949;28;19921;-62
2023/04/16 11:58:36;;;;;;;;;;;12.30;99.90;;;;;;4986823;28;20910;-61
2023/04/16 12:01:01;;;;;;;;;;;12.20;99.90;;;;;;4988569;28;19968;-60
2023/04/16 12:03:37;;;;;;;;;;;12.30;99.90;;;;;;4988150;28;20343;-62
2023/04/16 12:06:08;;;;;;;;;;;12.30;99.90;;;;;;4989019;28;20308;-63
2023/04/16 12:08:34;;;;;;;;;;;12.30;99.90;;;;;;4985343;28;19918;-64
2023/04/16 12:10:59;;;;;;;;;;;12.30;99.90;;;;;;4992439;28;19920;-62
2023/04/16 12:13:25;;;;;;;;;;;12.30;99.90;;;;;;4987836;28;19939;-62
2023/04/16 12:15:50;;;;;;;;;;;12.30;99.90;;;;;;4991215;28;19956;-63
2023/04/16 12:18:16;;;;;;;;;;;12.30;99.90;;;;;;4991591;28;19921;-64
2023/04/16 12:20:43;;;;;;;;;;;12.30;99.90;;;;;;4988486;28;19944;-63
2023/04/16 12:23:09;;;;;;;;;;;12.30;99.90;;;;;;4985746;28;20339;-62
2023/04/16 12:25:34;;;;;;;;;;;12.30;99.90;;;;;;4988726;28;19914;-63
2023/04/16 12:28:00;;;;;;;;;;;12.40;99.90;;;;;;4989998;28;20311;-62
2023/04/16 12:30:26;;;;;;;;;;;12.50;99.90;;;;;;4987425;28;19921;-64
2023/04/16 12:33:11;;;;;;;;;;;12.60;99.90;;;;;;4985589;28;19968;-63
2023/04/16 12:35:37;;;;;;;;;;;12.70;99.90;;;;;;4986705;28;20425;-62
2023/04/16 12:38:02;;;;;;;;;;;12.90;99.90;;;;;;4987663;28;19914;-63
2023/04/16 12:40:28;;;;;;;;;;;12.90;99.90;;;;;;4987865;28;19913;-62
2023/04/16 12:42:54;;;;;;;;;;;12.80;99.90;;;;;;4987292;28;20020;-63
2023/04/16 12:45:19;;;;;;;;;;;12.70;99.90;;;;;;4989234;28;19948;-63
2023/04/16 12:47:45;;;;;;;;;;;12.80;99.90;;;;;;4988912;28;20379;-63
2023/04/16 12:50:10;;;;;;;;;;;12.90;99.90;;;;;;4982008;28;19944;-61
2023/04/16 12:52:36;;;;;;;;;;;13.00;99.90;;;;;;4979083;28;19928;-60
2023/04/16 12:55:02;;;;;;;;;;;13.10;99.90;;;;;;4983067;28;19922;-62
2023/04/16 12:57:27;;;;;;;;;;;13.20;99.90;;;;;;4983125;28;19918;-62
2023/04/16 12:59:56;;;;;;;;;;;13.20;99.90;;;;;;4985316;28;19937;-62
2023/04/16 13:02:22;;;;;;;;;;;13.10;99.90;;;;;;4984799;28;19917;-63
2023/04/16 13:04:48;;;;;;;;;;;13.40;99.90;;;;;;4988769;28;19988;-62
2023/04/16 13:07:14;;;;;;;;;;;13.70;99.90;;;;;;4983338;28;20319;-56
2023/04/16 13:09:40;;;;;;;;;;;13.80;99.90;;;;;;4987601;28;20332;-61
2023/04/16 13:12:05;;;;;;;;;;;14.00;99.90;;;;;;4983112;28;20392;-58
2023/04/16 13:14:31;;;;;;;;;;;14.00;99.90;;;;;;4987191;28;20384;-59
2023/04/16 13:16:56;;;;;;;;;;;13.90;99.90;;;;;;4987224;28;19914;-57
2023/04/16 13:19:22;;;;;;;;;;;13.90;99.90;;;;;;4986968;28;20372;-57
2023/04/16 13:21:47;;;;;;;;;;;13.90;99.90;;;;;;4986100;28;20473;-60
2023/04/16 13:24:13;;;;;;;;;;;13.80;99.90;;;;;;4984739;28;19914;-58
2023/04/16 13:26:38;;;;;;;;;;;13.80;99.90;;;;;;4986296;28;20030;-59
2023/04/16 13:29:04;;;;;;;;;;;13.60;99.90;;;;;;4994515;28;19914;-61
2023/04/16 13:31:29;;;;;;;;;;;13.60;99.90;;;;;;4988172;28;19914;-58
2023/04/16 13:33:55;;;;;;;;;;;13.60;99.90;;;;;;4992293;28;20012;-59
2023/04/16 13:36:20;;;;;;;;;;;13.60;99.90;;;;;;4987438;28;19913;-60
2023/04/16 13:38:46;;;;;;;;;;;13.70;99.90;;;;;;4989041;28;19918;-58
2023/04/16 13:41:11;;;;;;;;;;;13.60;99.90;;;;;;4991487;28;19964;-62
2023/04/16 13:43:36;;;;;;;;;;;13.50;99.90;;;;;;4988396;28;19914;-58
2023/04/16 13:46:02;;;;;;;;;;;13.60;99.90;;;;;;4988818;28;19922;-57
2023/04/16 13:48:28;;;;;;;;;;;13.60;99.90;;;;;;4989991;28;20453;-52
2023/04/16 13:50:53;;;;;;;;;;;13.60;99.90;;;;;;4984845;28;20577;-59
2023/04/16 13:53:19;;;;;;;;;;;13.60;99.90;;;;;;4990002;28;19917;-55
2023/04/16 13:55:44;;;;;;;;;;;13.60;99.90;;;;;;4989300;28;19998;-58
2023/04/16 13:58:10;;;;;;;;;;;13.50;99.90;;;;;;4987370;28;19925;-58
2023/04/16 14:00:36;;;;;;;;;;;13.50;99.90;;;;;;4990128;28;19924;-55
2023/04/16 14:03:02;;;;;;;;;;;13.60;99.90;;;;;;4988062;28;19914;-54
2023/04/16 14:05:27;;;;;;;;;;;13.70;99.90;;;;;;4987981;28;19913;-57
2023/04/16 14:07:52;;;;;;;;;;;13.60;99.90;;;;;;4991667;28;19922;-55
2023/04/16 14:10:18;;;;;;;;;;;13.60;99.90;;;;;;4984663;28;19971;-58
2023/04/16 14:12:44;;;;;;;;;;;13.50;99.90;;;;;;4985004;28;20307;-57
2023/04/16 14:15:10;;;;;;;;;;;13.50;99.90;;;;;;4988277;28;19936;-57
2023/04/16 14:17:38;;;;;;;;;;;13.50;99.90;;;;;;4986501;28;19910;-57
2023/04/16 14:20:04;;;;;;;;;;;13.60;99.90;;;;;;4982342;28;20398;-58